Aeroporto :
LOGIN :

Iscrizione | Disclaimer

   EN    FR    IT 

 










Sommario :    VFR   VFR Marginale   IFR   IFR Intensivo   IFR Molto Intensivo
Visibilità : 
Base nubi : 
>= 8 km
>= 3000ft
5 / 8 km
1000 / 3000 ft
1500m / 5 km
500 / 1000 ft
800 / 1500m
200 / 500 ft
< 800m
< 200 ft
Simboli :   Temporali  Nebbia  Neve Forte  Precipitazioni Forti  Vento > 20 kt
SIGMETs :   Varie  Temporali  Ghiacco  Turbolenza  Onda orograficha  Ceneri Vulcaniche






- Altitudine del aeroporto : 226 ft
- Codice IATA : BEX


EGUB - RAF Benson

ULTIMO METAR :
  • 130920Z 17004KT 9999 SCT046 SCT250 05/04 Q1001 TEMPO SCT018 RMK BLU TEMPO WHT

METARs OBSOLETI :
  • 130850Z 18004KT CAVOK 05/04 Q1001 TEMPO SCT018 RMK BLU TEMPO WHT
  • 130820Z 16003KT CAVOK 03/03 Q1001 NOSIG RMK BLU BLU
  • 130750Z 16004KT CAVOK 01/01 Q1001 NOSIG RMK BLU BLU
  • 130650Z 19001KT 9999 FEW045 BKN160 01/00 Q1001 RMK BLU

TAF TAF EGUB
Valido dal 13 a 09 ore il 13 a 18 ore UTC


130740Z 1309/1318 25006KT 9999 FEW018
TEMPO 1310/1315 SCT020
ATIS : +44 1491-837766 (x7524)



MetMap, La meteo Aeronautica in un colpo d'occhio ! - Copyright ORBIFLY Dicembre 2007 - Disclaimer

ORBIFLY MET'MAP TEAM :

Programmazione e sviluppo : Alexandra Zaïnal
Concezione e sviluppo : Baudouin d'Aumeries
Co-Programmazione e sviluppo : Marc-Olivier Méhu
Supporto tecnico e logistico : Manuel Goepfert
Aiuto per la traduzione : Arnaldo La Scala

Contatto : metmap@orbifly.com




FONTI E CREDITI :

   NOAA